sensor_id;sensor_type;location;lat;lon;timestamp;pressure;altitude;pressure_sealevel;temperature;humidity
69318;BME280;56457;52.190;4.440;2023-06-26T00:00:10;101304.78;;;23.10;100.00
69318;BME280;56457;52.190;4.440;2023-06-26T00:01:11;101305.38;;;23.16;100.00
69318;BME280;56457;52.190;4.440;2023-06-26T00:02:11;101309.88;;;23.15;100.00
69318;BME280;56457;52.190;4.440;2023-06-26T00:03:11;101305.66;;;23.11;100.00
69318;BME280;56457;52.190;4.440;2023-06-26T00:04:14;101305.25;;;23.01;100.00
69318;BME280;56457;52.190;4.440;2023-06-26T00:05:15;101300.38;;;22.92;100.00
69318;BME280;56457;52.190;4.440;2023-06-26T00:06:15;101307.59;;;22.90;100.00
69318;BME280;56457;52.190;4.440;2023-06-26T00:07:16;101307.28;;;22.96;100.00
69318;BME280;56457;52.190;4.440;2023-06-26T00:08:16;101311.69;;;22.97;100.00
69318;BME280;56457;52.190;4.440;2023-06-26T00:09:16;101313.69;;;22.94;100.00
69318;BME280;56457;52.190;4.440;2023-06-26T00:10:16;101312.09;;;22.90;100.00
69318;BME280;56457;52.190;4.440;2023-06-26T00:11:17;101304.16;;;22.88;100.00
69318;BME280;56457;52.190;4.440;2023-06-26T00:12:17;101309.00;;;22.80;100.00
69318;BME280;56457;52.190;4.440;2023-06-26T00:13:17;101317.25;;;22.75;100.00
69318;BME280;56457;52.190;4.440;2023-06-26T00:14:18;101319.47;;;22.67;100.00
69318;BME280;56457;52.190;4.440;2023-06-26T00:15:20;101324.00;;;22.65;100.00
69318;BME280;56457;52.190;4.440;2023-06-26T00:16:21;101317.88;;;22.63;100.00
69318;BME280;56457;52.190;4.440;2023-06-26T00:17:21;101324.53;;;22.54;100.00
69318;BME280;56457;52.190;4.440;2023-06-26T00:18:23;101318.59;;;22.49;100.00
69318;BME280;56457;52.190;4.440;2023-06-26T00:19:24;101327.84;;;22.42;100.00
69318;BME280;56457;52.190;4.440;2023-06-26T00:20:25;101317.47;;;22.36;100.00
69318;BME280;56457;52.190;4.440;2023-06-26T00:21:25;101325.53;;;22.17;100.00
69318;BME280;56457;52.190;4.440;2023-06-26T00:22:25;101322.75;;;22.19;100.00
69318;BME280;56457;52.190;4.440;2023-06-26T00:23:26;101315.69;;;22.18;100.00
69318;BME280;56457;52.190;4.440;2023-06-26T00:24:27;101321.25;;;22.13;100.00
69318;BME280;56457;52.190;4.440;2023-06-26T00:25:27;101321.16;;;22.15;100.00
69318;BME280;56457;52.190;4.440;2023-06-26T00:26:28;101323.19;;;22.10;100.00
69318;BME280;56457;52.190;4.440;2023-06-26T00:27:28;101325.00;;;22.09;100.00
69318;BME280;56457;52.190;4.440;2023-06-26T00:28:28;101315.59;;;22.00;100.00
69318;BME280;56457;52.190;4.440;2023-06-26T00:29:29;101326.78;;;21.90;100.00
69318;BME280;56457;52.190;4.440;2023-06-26T00:30:29;101325.84;;;21.91;100.00
69318;BME280;56457;52.190;4.440;2023-06-26T00:31:30;101322.22;;;21.92;100.00
69318;BME280;56457;52.190;4.440;2023-06-26T00:32:30;101320.59;;;21.89;100.00
69318;BME280;56457;52.190;4.440;2023-06-26T00:33:30;101318.84;;;21.88;100.00
69318;BME280;56457;52.190;4.440;2023-06-26T00:34:30;101325.16;;;21.87;100.00
69318;BME280;56457;52.190;4.440;2023-06-26T00:35:30;101321.66;;;21.85;100.00
69318;BME280;56457;52.190;4.440;2023-06-26T00:36:31;101316.84;;;21.74;100.00
69318;BME280;56457;52.190;4.440;2023-06-26T00:37:31;101325.72;;;21.75;100.00
69318;BME280;56457;52.190;4.440;2023-06-26T00:38:32;101321.03;;;21.80;100.00
69318;BME280;56457;52.190;4.440;2023-06-26T00:39:32;101318.78;;;21.71;100.00
69318;BME280;56457;52.190;4.440;2023-06-26T00:40:33;101320.09;;;21.62;100.00
69318;BME280;56457;52.190;4.440;2023-06-26T00:41:33;101323.03;;;21.56;100.00
69318;BME280;56457;52.190;4.440;2023-06-26T00:42:33;101327.34;;;21.59;100.00
69318;BME280;56457;52.190;4.440;2023-06-26T00:43:34;101333.72;;;21.56;100.00
69318;BME280;56457;52.190;4.440;2023-06-26T00:44:34;101322.50;;;21.48;100.00
69318;BME280;56457;52.190;4.440;2023-06-26T00:45:34;101323.31;;;21.50;100.00
69318;BME280;56457;52.190;4.440;2023-06-26T00:46:34;101325.41;;;21.43;100.00
69318;BME280;56457;52.190;4.440;2023-06-26T00:47:35;101327.31;;;21.40;100.00
69318;BME280;56457;52.190;4.440;2023-06-26T00:48:36;101331.66;;;21.42;100.00
69318;BME280;56457;52.190;4.440;2023-06-26T00:49:36;101335.91;;;21.46;100.00
69318;BME280;56457;52.190;4.440;2023-06-26T00:50:37;101336.66;;;21.50;100.00
69318;BME280;56457;52.190;4.440;2023-06-26T00:51:37;101336.44;;;21.55;100.00
69318;BME280;56457;52.190;4.440;2023-06-26T00:52:38;101337.28;;;21.55;100.00
69318;BME280;56457;52.190;4.440;2023-06-26T00:53:38;101331.44;;;21.47;100.00
69318;BME280;56457;52.190;4.440;2023-06-26T00:54:39;101339.06;;;21.36;100.00
69318;BME280;56457;52.190;4.440;2023-06-26T00:55:39;101344.72;;;21.28;100.00
69318;BME280;56457;52.190;4.440;2023-06-26T00:56:40;101345.78;;;21.24;100.00
69318;BME280;56457;52.190;4.440;2023-06-26T00:57:40;101340.44;;;21.24;100.00
69318;BME280;56457;52.190;4.440;2023-06-26T00:58:40;101340.44;;;21.24;100.00
69318;BME280;56457;52.190;4.440;2023-06-26T00:59:41;101348.66;;;21.19;100.00
69318;BME280;56457;52.190;4.440;2023-06-26T01:00:41;101338.53;;;21.07;100.00
69318;BME280;56457;52.190;4.440;2023-06-26T01:01:43;101346.63;;;21.06;100.00
69318;BME280;56457;52.190;4.440;2023-06-26T01:02:43;101327.97;;;21.04;100.00
69318;BME280;56457;52.190;4.440;2023-06-26T01:03:44;101331.13;;;21.14;100.00
69318;BME280;56457;52.190;4.440;2023-06-26T01:04:49;101336.97;;;21.22;100.00
69318;BME280;56457;52.190;4.440;2023-06-26T01:05:52;101334.22;;;21.23;100.00
69318;BME280;56457;52.190;4.440;2023-06-26T01:06:55;101332.59;;;21.21;100.00
69318;BME280;56457;52.190;4.440;2023-06-26T01:07:56;101323.72;;;21.20;100.00
69318;BME280;56457;52.190;4.440;2023-06-26T01:08:57;101343.06;;;21.26;100.00
69318;BME280;56457;52.190;4.440;2023-06-26T01:09:58;101342.19;;;21.25;100.00
69318;BME280;56457;52.190;4.440;2023-06-26T01:10:58;101338.50;;;21.28;100.00
69318;BME280;56457;52.190;4.440;2023-06-26T01:11:59;101343.84;;;21.28;100.00
69318;BME280;56457;52.190;4.440;2023-06-26T01:12:59;101346.53;;;21.28;100.00
69318;BME280;56457;52.190;4.440;2023-06-26T01:13:59;101324.66;;;21.19;100.00
69318;BME280;56457;52.190;4.440;2023-06-26T01:15:01;101342.19;;;21.25;100.00
69318;BME280;56457;52.190;4.440;2023-06-26T01:16:02;101339.66;;;21.22;100.00
69318;BME280;56457;52.190;4.440;2023-06-26T01:17:02;101325.31;;;21.24;100.00
69318;BME280;56457;52.190;4.440;2023-06-26T01:18:04;101345.94;;;21.21;100.00
69318;BME280;56457;52.190;4.440;2023-06-26T01:19:09;101345.13;;;21.19;100.00
69318;BME280;56457;52.190;4.440;2023-06-26T01:20:10;101334.59;;;21.16;100.00
69318;BME280;56457;52.190;4.440;2023-06-26T01:21:11;101339.13;;;21.14;100.00
69318;BME280;56457;52.190;4.440;2023-06-26T01:22:21;101341.38;;;21.23;100.00
69318;BME280;56457;52.190;4.440;2023-06-26T01:23:46;101335.25;;;21.21;100.00
69318;BME280;56457;52.190;4.440;2023-06-26T01:24:54;101324.94;;;21.13;100.00
69318;BME280;56457;52.190;4.440;2023-06-26T01:27:16;101338.66;;;21.04;100.00
69318;BME280;56457;52.190;4.440;2023-06-26T01:28:18;101333.13;;;21.09;100.00
69318;BME280;56457;52.190;4.440;2023-06-26T01:29:19;101337.00;;;21.02;100.00
69318;BME280;56457;52.190;4.440;2023-06-26T01:30:23;101346.06;;;20.97;100.00
69318;BME280;56457;52.190;4.440;2023-06-26T01:31:24;101357.81;;;20.93;100.00
69318;BME280;56457;52.190;4.440;2023-06-26T01:32:24;101358.66;;;20.94;100.00
69318;BME280;56457;52.190;4.440;2023-06-26T01:33:24;101355.31;;;20.89;100.00
69318;BME280;56457;52.190;4.440;2023-06-26T01:34:25;101352.66;;;20.89;100.00
69318;BME280;56457;52.190;4.440;2023-06-26T01:35:26;101358.94;;;20.88;100.00
69318;BME280;56457;52.190;4.440;2023-06-26T01:36:26;101364.19;;;20.89;100.00
69318;BME280;56457;52.190;4.440;2023-06-26T01:37:27;101352.84;;;20.84;100.00
69318;BME280;56457;52.190;4.440;2023-06-26T01:38:27;101364.38;;;20.85;100.00
69318;BME280;56457;52.190;4.440;2023-06-26T01:39:27;101357.47;;;20.81;100.00
69318;BME280;56457;52.190;4.440;2023-06-26T01:40:28;101358.31;;;20.81;100.00
69318;BME280;56457;52.190;4.440;2023-06-26T01:41:28;101362.03;;;20.77;100.00
69318;BME280;56457;52.190;4.440;2023-06-26T01:42:28;101358.69;;;20.72;100.00
69318;BME280;56457;52.190;4.440;2023-06-26T01:43:36;101365.75;;;20.73;100.00
69318;BME280;56457;52.190;4.440;2023-06-26T01:44:44;101363.91;;;20.75;100.00
69318;BME280;56457;52.190;4.440;2023-06-26T01:45:44;101356.56;;;20.80;100.00
69318;BME280;56457;52.190;4.440;2023-06-26T01:46:53;101354.72;;;20.82;100.00
69318;BME280;56457;52.190;4.440;2023-06-26T01:47:55;101360.41;;;20.73;100.00
69318;BME280;56457;52.190;4.440;2023-06-26T01:50:17;101362.91;;;20.56;100.00
69318;BME280;56457;52.190;4.440;2023-06-26T01:51:18;101364.72;;;20.55;100.00
69318;BME280;56457;52.190;4.440;2023-06-26T01:53:24;101371.22;;;20.48;100.00
69318;BME280;56457;52.190;4.440;2023-06-26T01:54:25;101367.19;;;20.38;100.00
69318;BME280;56457;52.190;4.440;2023-06-26T01:56:49;101363.66;;;20.37;100.00
69318;BME280;56457;52.190;4.440;2023-06-26T01:57:52;101351.47;;;20.30;100.00
69318;BME280;56457;52.190;4.440;2023-06-26T01:58:54;101366.66;;;20.28;100.00
69318;BME280;56457;52.190;4.440;2023-06-26T01:59:55;101366.06;;;20.22;100.00
69318;BME280;56457;52.190;4.440;2023-06-26T02:00:56;101374.91;;;20.22;100.00
69318;BME280;56457;52.190;4.440;2023-06-26T02:01:56;101384.53;;;20.26;100.00
69318;BME280;56457;52.190;4.440;2023-06-26T02:02:57;101381.88;;;20.26;100.00
69318;BME280;56457;52.190;4.440;2023-06-26T02:03:57;101380.94;;;20.27;100.00
69318;BME280;56457;52.190;4.440;2023-06-26T02:04:57;101375.72;;;20.24;100.00
69318;BME280;56457;52.190;4.440;2023-06-26T02:05:58;101374.66;;;20.28;100.00
69318;BME280;56457;52.190;4.440;2023-06-26T02:06:58;101368.28;;;20.32;100.00
69318;BME280;56457;52.190;4.440;2023-06-26T02:07:58;101364.94;;;20.27;100.00
69318;BME280;56457;52.190;4.440;2023-06-26T02:08:59;101367.59;;;20.27;100.00
69318;BME280;56457;52.190;4.440;2023-06-26T02:09:59;101362.44;;;20.23;100.00
69318;BME280;56457;52.190;4.440;2023-06-26T02:10:59;101368.66;;;20.23;100.00
69318;BME280;56457;52.190;4.440;2023-06-26T02:11:59;101368.56;;;20.25;100.00
69318;BME280;56457;52.190;4.440;2023-06-26T02:13:00;101378.25;;;20.27;100.00
69318;BME280;56457;52.190;4.440;2023-06-26T02:14:00;101374.66;;;20.28;100.00
69318;BME280;56457;52.190;4.440;2023-06-26T02:15:01;101371.91;;;20.31;100.00
69318;BME280;56457;52.190;4.440;2023-06-26T02:16:01;101372.31;;;20.21;100.00
69318;BME280;56457;52.190;4.440;2023-06-26T02:17:01;101378.75;;;20.15;100.00
69318;BME280;56457;52.190;4.440;2023-06-26T02:18:02;101377.75;;;20.17;100.00
69318;BME280;56457;52.190;4.440;2023-06-26T02:19:02;101380.47;;;20.16;100.00
69318;BME280;56457;52.190;4.440;2023-06-26T02:20:02;101378.50;;;20.21;100.00
69318;BME280;56457;52.190;4.440;2023-06-26T02:21:03;101385.47;;;20.25;100.00
69318;BME280;56457;52.190;4.440;2023-06-26T02:22:03;101381.97;;;20.23;100.00
69318;BME280;56457;52.190;4.440;2023-06-26T02:23:04;101377.41;;;20.27;100.00
69318;BME280;56457;52.190;4.440;2023-06-26T02:24:04;101377.34;;;20.28;100.00
69318;BME280;56457;52.190;4.440;2023-06-26T02:25:05;101373.88;;;20.26;100.00
69318;BME280;56457;52.190;4.440;2023-06-26T02:26:05;101380.78;;;20.30;100.00
69318;BME280;56457;52.190;4.440;2023-06-26T02:27:06;101365.97;;;20.23;100.00
69318;BME280;56457;52.190;4.440;2023-06-26T02:28:07;101370.44;;;20.23;100.00
69318;BME280;56457;52.190;4.440;2023-06-26T02:29:07;101373.97;;;20.23;100.00
69318;BME280;56457;52.190;4.440;2023-06-26T02:30:08;101374.28;;;20.15;100.00
69318;BME280;56457;52.190;4.440;2023-06-26T02:31:08;101377.81;;;20.16;100.00
69318;BME280;56457;52.190;4.440;2023-06-26T02:32:08;101378.84;;;20.12;100.00
69318;BME280;56457;52.190;4.440;2023-06-26T02:33:09;101385.81;;;20.16;100.00
69318;BME280;56457;52.190;4.440;2023-06-26T02:34:09;101382.44;;;20.11;100.00
69318;BME280;56457;52.190;4.440;2023-06-26T02:35:09;101383.75;;;20.01;100.00
69318;BME280;56457;52.190;4.440;2023-06-26T02:36:10;101376.22;;;19.88;100.00
69318;BME280;56457;52.190;4.440;2023-06-26T02:37:10;101383.22;;;19.91;100.00
69318;BME280;56457;52.190;4.440;2023-06-26T02:38:10;101390.34;;;19.90;100.00
69318;BME280;56457;52.190;4.440;2023-06-26T02:39:12;101386.13;;;19.85;100.00
69318;BME280;56457;52.190;4.440;2023-06-26T02:40:14;101392.00;;;19.93;100.00
69318;BME280;56457;52.190;4.440;2023-06-26T02:41:14;101403.50;;;19.95;100.00
69318;BME280;56457;52.190;4.440;2023-06-26T02:42:14;101393.13;;;19.87;100.00
69318;BME280;56457;52.190;4.440;2023-06-26T02:43:15;101401.00;;;19.90;100.00
69318;BME280;56457;52.190;4.440;2023-06-26T02:44:16;101395.66;;;19.90;100.00
69318;BME280;56457;52.190;4.440;2023-06-26T02:45:16;101399.13;;;19.93;100.00
69318;BME280;56457;52.190;4.440;2023-06-26T02:46:16;101398.19;;;19.94;100.00
69318;BME280;56457;52.190;4.440;2023-06-26T02:47:17;101401.75;;;19.94;100.00
69318;BME280;56457;52.190;4.440;2023-06-26T02:48:17;101402.00;;;19.88;100.00
69318;BME280;56457;52.190;4.440;2023-06-26T02:49:17;101403.94;;;19.83;100.00
69318;BME280;56457;52.190;4.440;2023-06-26T02:50:17;101401.22;;;19.84;100.00
69318;BME280;56457;52.190;4.440;2023-06-26T02:51:18;101397.53;;;19.88;100.00
69318;BME280;56457;52.190;4.440;2023-06-26T02:52:18;101401.22;;;19.84;100.00
69318;BME280;56457;52.190;4.440;2023-06-26T02:53:19;101400.41;;;19.82;100.00
69318;BME280;56457;52.190;4.440;2023-06-26T02:54:19;101396.91;;;19.82;100.00
69318;BME280;56457;52.190;4.440;2023-06-26T02:55:20;101400.69;;;19.75;100.00
69318;BME280;56457;52.190;4.440;2023-06-26T02:56:21;101411.28;;;19.76;100.00
69318;BME280;56457;52.190;4.440;2023-06-26T02:57:21;101398.94;;;19.74;100.00
69318;BME280;56457;52.190;4.440;2023-06-26T02:58:21;101413.13;;;19.74;100.00
69318;BME280;56457;52.190;4.440;2023-06-26T02:59:21;101414.13;;;19.72;100.00
69318;BME280;56457;52.190;4.440;2023-06-26T03:00:22;101420.53;;;19.66;100.00
69318;BME280;56457;52.190;4.440;2023-06-26T03:01:22;101427.72;;;19.64;100.00
69318;BME280;56457;52.190;4.440;2023-06-26T03:02:22;101431.97;;;19.68;100.00
69318;BME280;56457;52.190;4.440;2023-06-26T03:03:22;101429.22;;;19.71;100.00
69318;BME280;56457;52.190;4.440;2023-06-26T03:04:23;101436.22;;;19.74;100.00
69318;BME280;56457;52.190;4.440;2023-06-26T03:05:23;101430.91;;;19.74;100.00
69318;BME280;56457;52.190;4.440;2023-06-26T03:06:24;101438.94;;;19.72;100.00
69318;BME280;56457;52.190;4.440;2023-06-26T03:07:24;101442.41;;;19.74;100.00
69318;BME280;56457;52.190;4.440;2023-06-26T03:08:24;101441.50;;;19.75;100.00
69318;BME280;56457;52.190;4.440;2023-06-26T03:09:24;101435.97;;;19.81;100.00
69318;BME280;56457;52.190;4.440;2023-06-26T03:10:25;101439.25;;;19.88;100.00
69318;BME280;56457;52.190;4.440;2023-06-26T03:11:25;101436.47;;;19.91;100.00
69318;BME280;56457;52.190;4.440;2023-06-26T03:12:25;101430.13;;;19.95;100.00
69318;BME280;56457;52.190;4.440;2023-06-26T03:13:25;101440.81;;;19.94;100.00
69318;BME280;56457;52.190;4.440;2023-06-26T03:14:26;101434.69;;;19.92;100.00
69318;BME280;56457;52.190;4.440;2023-06-26T03:15:26;101438.28;;;19.90;100.00
69318;BME280;56457;52.190;4.440;2023-06-26T03:16:27;101436.38;;;19.94;100.00
69318;BME280;56457;52.190;4.440;2023-06-26T03:17:27;101431.16;;;19.91;100.00
69318;BME280;56457;52.190;4.440;2023-06-26T03:18:27;101441.63;;;19.96;100.00
69318;BME280;56457;52.190;4.440;2023-06-26T03:19:28;101440.53;;;20.01;100.00
69318;BME280;56457;52.190;4.440;2023-06-26T03:20:28;101442.38;;;19.99;100.00
69318;BME280;56457;52.190;4.440;2023-06-26T03:21:28;101447.81;;;19.96;100.00
69318;BME280;56457;52.190;4.440;2023-06-26T03:22:28;101439.78;;;19.98;100.00
69318;BME280;56457;52.190;4.440;2023-06-26T03:23:29;101439.13;;;19.91;100.00
69318;BME280;56457;52.190;4.440;2023-06-26T03:24:29;101439.06;;;19.93;100.00
69318;BME280;56457;52.190;4.440;2023-06-26T03:25:29;101446.38;;;19.87;100.00
69318;BME280;56457;52.190;4.440;2023-06-26T03:26:30;101444.84;;;19.80;100.00
69318;BME280;56457;52.190;4.440;2023-06-26T03:27:30;101445.06;;;19.74;100.00
69318;BME280;56457;52.190;4.440;2023-06-26T03:28:30;101451.31;;;19.73;100.00
69318;BME280;56457;52.190;4.440;2023-06-26T03:29:31;101456.66;;;19.73;100.00
69318;BME280;56457;52.190;4.440;2023-06-26T03:30:31;101451.22;;;19.76;100.00
69318;BME280;56457;52.190;4.440;2023-06-26T03:31:31;101446.78;;;19.77;100.00
69318;BME280;56457;52.190;4.440;2023-06-26T03:32:32;101451.00;;;19.82;100.00
69318;BME280;56457;52.190;4.440;2023-06-26T03:33:32;101448.34;;;19.82;100.00
69318;BME280;56457;52.190;4.440;2023-06-26T03:34:32;101452.75;;;19.83;100.00
69318;BME280;56457;52.190;4.440;2023-06-26T03:35:32;101450.22;;;19.79;100.00
69318;BME280;56457;52.190;4.440;2023-06-26T03:36:33;101449.50;;;19.75;100.00
69318;BME280;56457;52.190;4.440;2023-06-26T03:37:33;101444.25;;;19.72;100.00
69318;BME280;56457;52.190;4.440;2023-06-26T03:38:33;101448.72;;;19.72;100.00
69318;BME280;56457;52.190;4.440;2023-06-26T03:39:34;101444.19;;;19.74;100.00
69318;BME280;56457;52.190;4.440;2023-06-26T03:40:34;101444.97;;;19.77;100.00
69318;BME280;56457;52.190;4.440;2023-06-26T03:41:34;101452.97;;;19.77;100.00
69318;BME280;56457;52.190;4.440;2023-06-26T03:42:34;101453.97;;;19.73;100.00
69318;BME280;56457;52.190;4.440;2023-06-26T03:43:35;101453.03;;;19.76;100.00
69318;BME280;56457;52.190;4.440;2023-06-26T03:44:35;101454.69;;;19.78;100.00
69318;BME280;56457;52.190;4.440;2023-06-26T03:45:35;101450.22;;;19.79;100.00
69318;BME280;56457;52.190;4.440;2023-06-26T03:46:36;101449.50;;;19.75;100.00
69318;BME280;56457;52.190;4.440;2023-06-26T03:47:36;101459.22;;;19.76;100.00
69318;BME280;56457;52.190;4.440;2023-06-26T03:48:36;101451.22;;;19.76;100.00
69318;BME280;56457;52.190;4.440;2023-06-26T03:49:38;101459.94;;;19.81;100.00
69318;BME280;56457;52.190;4.440;2023-06-26T03:50:38;101457.13;;;19.84;100.00
69318;BME280;56457;52.190;4.440;2023-06-26T03:51:38;101457.19;;;19.83;100.00
69318;BME280;56457;52.190;4.440;2023-06-26T03:52:39;101464.31;;;19.82;100.00
69318;BME280;56457;52.190;4.440;2023-06-26T03:53:39;101463.44;;;19.82;100.00
69318;BME280;56457;52.190;4.440;2023-06-26T03:54:39;101468.72;;;19.83;100.00
69318;BME280;56457;52.190;4.440;2023-06-26T03:55:39;101469.66;;;19.82;100.00
69318;BME280;56457;52.190;4.440;2023-06-26T03:56:40;101469.41;;;19.88;100.00
69318;BME280;56457;52.190;4.440;2023-06-26T03:57:40;101468.59;;;19.86;100.00
69318;BME280;56457;52.190;4.440;2023-06-26T03:58:40;101475.41;;;19.94;100.00
69318;BME280;56457;52.190;4.440;2023-06-26T03:59:40;101471.97;;;19.92;100.00
69318;BME280;56457;52.190;4.440;2023-06-26T04:00:41;101471.00;;;19.94;100.00
69318;BME280;56457;52.190;4.440;2023-06-26T04:01:41;101465.81;;;19.89;100.00
69318;BME280;56457;52.190;4.440;2023-06-26T04:02:41;101467.94;;;19.80;100.00
69318;BME280;56457;52.190;4.440;2023-06-26T04:03:42;101475.91;;;19.81;100.00
69318;BME280;56457;52.190;4.440;2023-06-26T04:04:42;101475.78;;;19.84;100.00
69318;BME280;56457;52.190;4.440;2023-06-26T04:05:42;101477.72;;;19.79;100.00
69318;BME280;56457;52.190;4.440;2023-06-26T04:06:42;101476.63;;;19.85;100.00
69318;BME280;56457;52.190;4.440;2023-06-26T04:07:43;101482.97;;;19.82;100.00
69318;BME280;56457;52.190;4.440;2023-06-26T04:08:43;101472.41;;;19.79;100.00
69318;BME280;56457;52.190;4.440;2023-06-26T04:09:43;101475.78;;;19.84;100.00
69318;BME280;56457;52.190;4.440;2023-06-26T04:10:44;101476.63;;;19.85;100.00
69318;BME280;56457;52.190;4.440;2023-06-26T04:11:45;101476.00;;;19.78;100.00
69318;BME280;56457;52.190;4.440;2023-06-26T04:12:45;101478.66;;;19.78;100.00
69318;BME280;56457;52.190;4.440;2023-06-26T04:13:46;101477.94;;;19.73;100.00
69318;BME280;56457;52.190;4.440;2023-06-26T04:14:46;101484.25;;;19.71;100.00
69318;BME280;56457;52.190;4.440;2023-06-26T04:15:46;101479.91;;;19.68;100.00
69318;BME280;56457;52.190;4.440;2023-06-26T04:16:46;101485.22;;;19.68;100.00
69318;BME280;56457;52.190;4.440;2023-06-26T04:17:47;101481.69;;;19.68;100.00
69318;BME280;56457;52.190;4.440;2023-06-26T04:18:47;101493.06;;;19.73;100.00
69318;BME280;56457;52.190;4.440;2023-06-26T04:19:47;101498.44;;;19.71;100.00
69318;BME280;56457;52.190;4.440;2023-06-26T04:21:06;101493.25;;;19.67;100.00
69318;BME280;56457;52.190;4.440;2023-06-26T04:22:07;101500.00;;;19.77;100.00
69318;BME280;56457;52.190;4.440;2023-06-26T04:23:07;101496.78;;;19.67;100.00
69318;BME280;56457;52.190;4.440;2023-06-26T04:24:07;101500.16;;;19.72;100.00
69318;BME280;56457;52.190;4.440;2023-06-26T04:25:08;101499.25;;;19.73;100.00
69318;BME280;56457;52.190;4.440;2023-06-26T04:26:08;101500.97;;;19.74;100.00
69318;BME280;56457;52.190;4.440;2023-06-26T04:27:08;101502.03;;;19.70;100.00
69318;BME280;56457;52.190;4.440;2023-06-26T04:28:09;101502.97;;;19.68;100.00
69318;BME280;56457;52.190;4.440;2023-06-26T04:29:09;101507.22;;;19.73;100.00
69318;BME280;56457;52.190;4.440;2023-06-26T04:30:10;101506.22;;;19.77;100.00
69318;BME280;56457;52.190;4.440;2023-06-26T04:31:10;101503.53;;;19.77;100.00
69318;BME280;56457;52.190;4.440;2023-06-26T04:32:10;101501.81;;;19.76;100.00
69318;BME280;56457;52.190;4.440;2023-06-26T04:33:11;101505.50;;;19.72;100.00
69318;BME280;56457;52.190;4.440;2023-06-26T04:34:13;101502.34;;;19.61;100.00
69318;BME280;56457;52.190;4.440;2023-06-26T04:35:13;101506.88;;;19.57;100.00
69318;BME280;56457;52.190;4.440;2023-06-26T04:36:13;101503.31;;;19.58;100.00
69318;BME280;56457;52.190;4.440;2023-06-26T04:37:14;101502.44;;;19.58;100.00
69318;BME280;56457;52.190;4.440;2023-06-26T04:38:17;101513.03;;;19.59;100.00
69318;BME280;56457;52.190;4.440;2023-06-26T04:39:18;101509.63;;;19.54;100.00
69318;BME280;56457;52.190;4.440;2023-06-26T04:40:18;101503.50;;;19.52;100.00
69318;BME280;56457;52.190;4.440;2023-06-26T04:41:18;101517.66;;;19.53;100.00
69318;BME280;56457;52.190;4.440;2023-06-26T04:42:19;101513.22;;;19.53;100.00
69318;BME280;56457;52.190;4.440;2023-06-26T04:43:21;101518.53;;;19.53;100.00
69318;BME280;56457;52.190;4.440;2023-06-26T04:44:21;101522.19;;;19.51;100.00
69318;BME280;56457;52.190;4.440;2023-06-26T04:45:22;101521.34;;;19.49;100.00
69318;BME280;56457;52.190;4.440;2023-06-26T04:46:22;101523.25;;;19.45;100.00
69318;BME280;56457;52.190;4.440;2023-06-26T04:47:22;101524.84;;;19.51;100.00
69318;BME280;56457;52.190;4.440;2023-06-26T04:48:22;101531.91;;;19.52;100.00
69318;BME280;56457;52.190;4.440;2023-06-26T04:49:23;101532.06;;;19.47;100.00
69318;BME280;56457;52.190;4.440;2023-06-26T04:50:23;101538.97;;;19.53;100.00
69318;BME280;56457;52.190;4.440;2023-06-26T04:51:26;101543.28;;;19.55;100.00
69318;BME280;56457;52.190;4.440;2023-06-26T04:52:27;101534.34;;;19.59;100.00
69318;BME280;56457;52.190;4.440;2023-06-26T04:53:27;101540.53;;;19.60;100.00
69318;BME280;56457;52.190;4.440;2023-06-26T04:54:28;101546.81;;;19.57;100.00
69318;BME280;56457;52.190;4.440;2023-06-26T04:55:28;101543.28;;;19.55;100.00
69318;BME280;56457;52.190;4.440;2023-06-26T04:56:28;101543.13;;;19.61;100.00
69318;BME280;56457;52.190;4.440;2023-06-26T04:57:30;101544.06;;;19.60;100.00
69318;BME280;56457;52.190;4.440;2023-06-26T04:58:31;101548.59;;;19.57;100.00
69318;BME280;56457;52.190;4.440;2023-06-26T04:59:31;101554.94;;;19.53;100.00
69318;BME280;56457;52.190;4.440;2023-06-26T05:00:31;101562.09;;;19.51;100.00
69318;BME280;56457;52.190;4.440;2023-06-26T05:01:32;101555.94;;;19.49;100.00
69318;BME280;56457;52.190;4.440;2023-06-26T05:02:32;101560.66;;;19.41;100.00
69318;BME280;56457;52.190;4.440;2023-06-26T05:03:33;101563.56;;;19.33;100.00
69318;BME280;56457;52.190;4.440;2023-06-26T05:04:33;101566.06;;;19.37;100.00
69318;BME280;56457;52.190;4.440;2023-06-26T05:05:33;101561.47;;;19.43;100.00
69318;BME280;56457;52.190;4.440;2023-06-26T05:06:33;101565.00;;;19.43;100.00
69318;BME280;56457;52.190;4.440;2023-06-26T05:07:34;101565.66;;;19.50;100.00
69318;BME280;56457;52.190;4.440;2023-06-26T05:08:34;101562.25;;;19.46;100.00
69318;BME280;56457;52.190;4.440;2023-06-26T05:09:34;101564.13;;;19.43;100.00
69318;BME280;56457;52.190;4.440;2023-06-26T05:10:34;101574.06;;;19.37;100.00
69318;BME280;56457;52.190;4.440;2023-06-26T05:11:36;101560.88;;;19.34;100.00
69318;BME280;56457;52.190;4.440;2023-06-26T05:12:36;101569.78;;;19.33;100.00
69318;BME280;56457;52.190;4.440;2023-06-26T05:13:36;101580.69;;;19.24;100.00
69318;BME280;56457;52.190;4.440;2023-06-26T05:14:37;101577.28;;;19.21;100.00
69318;BME280;56457;52.190;4.440;2023-06-26T05:15:37;101570.06;;;19.24;100.00
69318;BME280;56457;52.190;4.440;2023-06-26T05:16:37;101571.09;;;19.20;100.00
69318;BME280;56457;52.190;4.440;2023-06-26T05:17:38;101576.28;;;19.23;100.00
69318;BME280;56457;52.190;4.440;2023-06-26T05:18:38;101572.56;;;19.29;100.00